Terminal Aerodrome Forecast
Issued by NWS

Home | Current Version | Previous Version | Text Only | Print | Product List | Glossary On
Versions: 1 2 3 4 5 6 7 8 9 10 11 12
000
FTUS42 TJSJ 270540
TAFISX
TAF
TISX 270540Z 2706/2806 06008KT P6SM VCSH SCT020 SCT040
     FM271130 08013KT P6SM FEW030 FEW050
     FM272300 08011KT P6SM FEW025 SCT040=

USA.gov is the U.S. government's official web portal to all federal, state and local government web resources and services.